»·PEaware :: ASA389 KSFO-KPDX

ASA389 :: KSFO-KPDX

FLIGHT INFORMATION

Flight Status: Arrived
Operator:
Alaska Airlines
More flights by this operator :: More flights under this callsign
Pilot: Anonymous 14085 (14085)
Aircraft: BOEING 737-800
(B738)
More flights by this aircraft type
Origin: KSFO San Francisco Intl
United States
Destination: KPDX Portland Intl
United States
More flights between these airports :: More routes between these airports
Route: TRUKN2 GRTFL MACHU TMBRS2
File this flight plan on PilotEdge
Remarks: PBN / A1B1C1D1S1S2 DOF / 170512 REG / N806SB EET / KZSE0032 OPR / ASA RMK / TCAS SIMBRIEF
Altitude:
(Current/Filed)
36,000ft
Speed:
(Current/Filed)
438kts
Departed: 11-May-17 08:36 PM
Arrived: 11-May-17 09:51 PM
Distance/Time
Traveled:
478nm/1:15
Distance/Time
To Go:
Arrived

Flight Plot

Page will automatically refresh every two minutes.


Map Options




Map Legend


Flown Route
Filed Route
Departure Airport
Arrival Airport
Navaid (VOR, NDB)
Fix

Horizontal Profiles

Position Reports

Time Latitude Longitude Heading Altitude Ground
Speed
11-May-17 20:03 37.612636 -122.384669 6 22ft 0kts
11-May-17 20:04 37.612636 -122.384669 6 22ft 0kts
11-May-17 20:05 37.612636 -122.384669 6 22ft 0kts
11-May-17 20:06 37.612636 -122.384669 6 22ft 0kts
11-May-17 20:07 37.612636 -122.384669 6 22ft 0kts
11-May-17 20:08 37.612636 -122.384669 6 22ft 0kts
11-May-17 20:09 37.612636 -122.384669 6 22ft 0kts
11-May-17 20:10 37.612636 -122.384669 6 22ft 0kts
11-May-17 20:11 37.612636 -122.384669 6 22ft 0kts
11-May-17 20:12 37.612636 -122.384669 6 22ft 0kts
11-May-17 20:13 37.612636 -122.384669 6 22ft 0kts
11-May-17 20:14 37.612636 -122.384669 6 22ft 0kts
11-May-17 20:15 37.612636 -122.384669 6 22ft 0kts
11-May-17 20:16 37.612636 -122.384669 6 22ft 0kts
11-May-17 20:17 37.612636 -122.384669 6 22ft 0kts
11-May-17 20:18 37.612636 -122.384669 6 22ft 0kts
11-May-17 20:19 37.612636 -122.384669 6 22ft 0kts
11-May-17 20:20 37.612636 -122.384669 6 22ft 0kts
11-May-17 20:21 37.612636 -122.384669 6 22ft 0kts
11-May-17 20:22 37.612636 -122.384669 6 22ft 0kts
11-May-17 20:23 37.612636 -122.384669 6 22ft 0kts
11-May-17 20:24 37.612636 -122.384669 6 22ft 0kts
11-May-17 20:25 37.612626 -122.384671 6 22ft 0kts
11-May-17 20:26 37.611596 -122.384915 41 22ft 3kts
11-May-17 20:27 37.611404 -122.385259 81 22ft 0kts
11-May-17 20:28 37.611404 -122.385259 81 22ft 0kts
11-May-17 20:29 37.611404 -122.385259 81 22ft 0kts
11-May-17 20:30 37.611404 -122.385258 81 22ft 0kts
11-May-17 20:31 37.609428 -122.384807 178 22ft 13kts
11-May-17 20:32 37.608789 -122.384576 132 22ft 0kts
11-May-17 20:33 37.608685 -122.384370 120 22ft 0kts
11-May-17 20:34 37.608570 -122.384112 118 22ft 0kts
11-May-17 20:35 37.608570 -122.384112 118 22ft 0kts
11-May-17 20:36 37.608570 -122.384112 118 22ft 0kts
11-May-17 20:37 37.608430 -122.382585 34 22ft 10kts
11-May-17 20:38 37.639795 -122.354766 42 2150ft 193kts
11-May-17 20:39 37.679200 -122.286986 52 4683ft 295kts
11-May-17 20:40 37.737569 -122.220114 7 9048ft 309kts
11-May-17 20:41 37.812399 -122.223209 351 11648ft 352kts
11-May-17 20:42 37.928144 -122.233481 349 16353ft 371kts
11-May-17 20:43 38.032511 -122.242971 348 19134ft 385kts
11-May-17 20:44 38.123553 -122.251298 349 20369ft 415kts
11-May-17 20:45 38.239842 -122.261835 349 23588ft 434kts
11-May-17 20:46 38.382490 -122.274803 349 27010ft 453kts
11-May-17 20:47 38.487733 -122.284436 349 29239ft 464kts
11-May-17 20:48 38.618182 -122.296442 349 31563ft 481kts
11-May-17 20:49 38.752916 -122.308849 349 33687ft 494kts
11-May-17 20:50 38.908939 -122.323261 349 34266ft 485kts
11-May-17 20:51 39.018318 -122.333414 349 36085ft 471kts
11-May-17 20:52 39.146732 -122.345385 349 36096ft 470kts
11-May-17 20:53 39.276144 -122.357488 349 36096ft 470kts
11-May-17 20:54 39.427356 -122.371690 349 36085ft 470kts
11-May-17 20:55 39.535508 -122.381885 349 36071ft 470kts
11-May-17 20:56 39.665178 -122.394150 349 36072ft 470kts
11-May-17 20:57 39.794732 -122.406452 349 36047ft 470kts
11-May-17 20:58 39.924445 -122.418844 349 36053ft 477kts
11-May-17 20:59 40.055787 -122.431381 349 36048ft 475kts
11-May-17 21:00 40.186318 -122.443913 349 36041ft 475kts
11-May-17 21:01 40.317247 -122.456513 349 36008ft 470kts
11-May-17 21:02 40.446792 -122.469074 349 36015ft 470kts
11-May-17 21:03 40.576089 -122.481647 349 36017ft 471kts
11-May-17 21:04 40.706152 -122.494326 349 36070ft 471kts
11-May-17 21:05 40.836009 -122.507039 349 36072ft 470kts
11-May-17 21:06 40.965829 -122.519802 349 36073ft 470kts
11-May-17 21:07 41.095411 -122.532591 349 36048ft 470kts
11-May-17 21:08 41.222657 -122.545194 349 36040ft 471kts
11-May-17 21:09 41.352236 -122.558082 349 36041ft 471kts
11-May-17 21:10 41.481835 -122.571028 349 36068ft 471kts
11-May-17 21:11 41.612061 -122.581018 351 36070ft 472kts
11-May-17 21:12 41.742913 -122.589521 351 36071ft 472kts
11-May-17 21:13 41.872937 -122.598023 351 36072ft 472kts
11-May-17 21:14 42.003479 -122.606595 351 36073ft 472kts
11-May-17 21:15 42.132719 -122.615114 351 36093ft 472kts
11-May-17 21:16 42.263138 -122.623773 351 36094ft 472kts
11-May-17 21:17 42.393815 -122.632507 351 36095ft 472kts
11-May-17 21:18 42.524481 -122.641268 351 36096ft 472kts
11-May-17 21:19 42.654788 -122.650045 350 36097ft 472kts
11-May-17 21:20 42.784573 -122.658820 350 36107ft 471kts
11-May-17 21:21 42.904801 -122.666986 350 36108ft 471kts
11-May-17 21:22 43.034856 -122.675856 350 36109ft 471kts
11-May-17 21:23 43.163733 -122.684670 350 36102ft 471kts
11-May-17 21:24 43.294218 -122.693660 350 36103ft 471kts
11-May-17 21:25 43.428523 -122.702979 350 35194ft 498kts
11-May-17 21:26 43.565822 -122.712401 350 33728ft 498kts
11-May-17 21:27 43.703636 -122.721977 350 32276ft 501kts
11-May-17 21:28 43.842808 -122.731672 350 30824ft 504kts
11-May-17 21:29 43.981194 -122.741354 351 29369ft 502kts
11-May-17 21:30 44.116020 -122.750798 351 27939ft 493kts
11-May-17 21:31 44.250786 -122.743217 358 26440ft 489kts
11-May-17 21:32 44.384395 -122.730049 358 25002ft 475kts
11-May-17 21:33 44.516378 -122.717072 359 24109ft 497kts
11-May-17 21:34 44.653087 -122.703349 359 23624ft 497kts
11-May-17 21:35 44.783575 -122.690139 359 20829ft 450kts
11-May-17 21:36 44.901430 -122.678296 358 17888ft 419kts
11-May-17 21:37 45.010478 -122.667389 359 15146ft 398kts
11-May-17 21:38 45.115240 -122.656758 1 11694ft 372kts
11-May-17 21:39 45.213227 -122.646735 2 9011ft 333kts
11-May-17 21:40 45.295837 -122.669680 336 7782ft 296kts
11-May-17 21:41 45.368618 -122.708099 337 6657ft 295kts
11-May-17 21:42 45.444134 -122.748293 337 4959ft 289kts
11-May-17 21:43 45.515235 -122.795237 308 3387ft 271kts
11-May-17 21:44 45.559427 -122.871519 305 2977ft 226kts
11-May-17 21:45 45.600208 -122.941390 311 2986ft 232kts
11-May-17 21:46 45.654031 -122.936315 44 3001ft 204kts
11-May-17 21:47 45.683253 -122.870466 85 2989ft 190kts
11-May-17 21:48 45.667370 -122.808663 122 2919ft 174kts
11-May-17 21:49 45.645137 -122.750525 118 2081ft 161kts
11-May-17 21:50 45.626267 -122.700470 117 1329ft 139kts
11-May-17 21:51 45.607299 -122.651978 119 561ft 140kts
11-May-17 21:52 45.590717 -122.610057 120 38ft 41kts
11-May-17 21:53 45.589598 -122.604392 45 38ft 0kts
11-May-17 21:54 45.590671 -122.602873 44 38ft 9kts
11-May-17 21:55 45.590649 -122.601242 199 38ft 6kts
11-May-17 21:56 45.589053 -122.600447 119 38ft 10kts
11-May-17 21:57 45.587615 -122.596395 46 38ft 3kts
11-May-17 21:58 45.588180 -122.595818 34 38ft 0kts

Navigation Log

Ident Type
1. KSFO Airport
2. KPDX Airport